Time;durP1;ratioP1;P1;durP2;ratioP2;P2;SDS_P1;SDS_P2;PMS_P1;PMS_P2;Temp;Humidity;BMP_temperature;BMP_pressure;BME280_temperature;BME280_humidity;BME280_pressure;Samples;Min_cycle;Max_cycle;Signal;HPM_P1;HPM_P2
2023/08/13 00:01:54;;;;;;;8.68;1.70;;;15.40;99.90;;;;;;5063706;28;20151;-65
2023/08/13 00:04:20;;;;;;;12.18;2.10;;;15.40;99.90;;;;;;5067972;28;20406;-84
2023/08/13 00:06:46;;;;;;;4.82;1.65;;;15.40;99.90;;;;;;5072397;28;20057;-66
2023/08/13 00:09:12;;;;;;;5.15;1.50;;;15.40;99.90;;;;;;5074134;28;20059;-65
2023/08/13 00:11:38;;;;;;;5.90;1.70;;;15.40;99.90;;;;;;5053418;28;20044;-66
2023/08/13 00:14:04;;;;;;;6.53;1.55;;;15.40;99.90;;;;;;5068579;28;20116;-66
2023/08/13 00:16:29;;;;;;;7.57;1.60;;;15.40;99.90;;;;;;5065792;28;20052;-66
2023/08/13 00:18:55;;;;;;;8.57;1.70;;;15.40;99.90;;;;;;5057820;28;20045;-66
2023/08/13 00:21:21;;;;;;;7.82;1.60;;;15.40;99.90;;;;;;5062982;28;20064;-66
2023/08/13 00:23:48;;;;;;;6.95;1.02;;;15.40;99.90;;;;;;5067138;28;20165;-66
2023/08/13 00:26:14;;;;;;;7.93;2.00;;;15.40;99.90;;;;;;5049784;28;20147;-66
2023/08/13 00:28:39;;;;;;;5.70;1.50;;;15.40;99.90;;;;;;5064971;28;20123;-66
2023/08/13 00:31:05;;;;;;;11.57;1.98;;;15.40;99.90;;;;;;5067186;28;20051;-65
2023/08/13 00:33:31;;;;;;;7.32;1.70;;;15.40;99.90;;;;;;5066101;28;20054;-66
2023/08/13 00:35:57;;;;;;;11.70;1.88;;;15.40;99.90;;;;;;5057560;28;20479;-66
2023/08/13 00:38:22;;;;;;;5.93;1.85;;;15.40;99.90;;;;;;5065273;28;20505;-69
2023/08/13 00:40:48;;;;;;;7.57;2.03;;;15.40;99.90;;;;;;5067160;28;20394;-66
2023/08/13 00:43:14;;;;;;;9.45;1.73;;;15.40;99.90;;;;;;5068028;28;20131;-66
2023/08/13 00:45:40;;;;;;;12.93;1.55;;;15.40;99.90;;;;;;5066427;28;20412;-65
2023/08/13 00:48:06;;;;;;;18.92;2.45;;;15.50;99.90;;;;;;5067886;28;20140;-66
2023/08/13 00:50:33;;;;;;;8.52;1.63;;;15.40;99.90;;;;;;5065633;28;20044;-66
2023/08/13 00:52:58;;;;;;;9.10;2.22;;;15.40;99.90;;;;;;5068221;28;20058;-67
2023/08/13 00:55:25;;;;;;;6.60;1.50;;;15.40;99.90;;;;;;5065944;28;20048;-66
2023/08/13 00:57:50;;;;;;;6.00;2.42;;;15.40;99.90;;;;;;5066698;28;20571;-66
2023/08/13 01:00:17;;;;;;;10.88;2.03;;;15.40;99.90;;;;;;5065546;28;20049;-65
2023/08/13 01:02:43;;;;;;;5.82;1.70;;;15.40;99.90;;;;;;5066893;28;20045;-67
2023/08/13 01:05:09;;;;;;;6.60;1.70;;;15.40;99.90;;;;;;5067150;28;20049;-66
2023/08/13 01:07:59;;;;;;;5.70;1.70;;;15.40;99.90;;;;;;5065518;28;20474;-66
2023/08/13 01:10:34;;;;;;;10.02;2.13;;;15.40;99.90;;;;;;5054355;28;20079;-66
2023/08/13 01:13:13;;;;;;;10.00;2.22;;;15.50;99.90;;;;;;5052998;28;20048;-65
2023/08/13 01:15:42;;;;;;;8.15;1.70;;;15.50;99.90;;;;;;5066367;28;20041;-66
2023/08/13 01:18:09;;;;;;;7.60;1.70;;;15.50;99.90;;;;;;5066215;28;20068;-66
2023/08/13 01:20:37;;;;;;;8.27;1.80;;;15.40;99.90;;;;;;5065175;28;20573;-66
2023/08/13 01:23:04;;;;;;;7.00;1.60;;;15.50;99.90;;;;;;5067117;28;20419;-66
2023/08/13 01:25:31;;;;;;;8.45;1.80;;;15.50;99.90;;;;;;5065570;28;20083;-66
2023/08/13 01:28:12;;;;;;;10.60;1.70;;;15.50;99.90;;;;;;5066207;28;20418;-66
2023/08/13 01:30:56;;;;;;;13.20;2.33;;;15.50;99.90;;;;;;5066377;28;20040;-67
2023/08/13 01:33:27;;;;;;;7.60;2.13;;;15.60;99.90;;;;;;5055120;28;20048;-65
2023/08/13 01:35:58;;;;;;;5.20;1.63;;;15.60;99.90;;;;;;5067137;28;20041;-66
2023/08/13 01:38:25;;;;;;;9.52;2.00;;;15.50;99.90;;;;;;5071170;28;20044;-66
2023/08/13 01:40:50;;;;;;;9.43;2.50;;;15.50;99.90;;;;;;5066708;28;20560;-66
2023/08/13 01:43:17;;;;;;;6.00;1.35;;;15.50;99.90;;;;;;5065939;28;20044;-66
2023/08/13 01:45:43;;;;;;;9.32;1.90;;;15.50;99.90;;;;;;5066587;28;20039;-66
2023/08/13 01:48:09;;;;;;;17.45;2.40;;;15.50;99.90;;;;;;5066636;28;20061;-65
2023/08/13 01:50:38;;;;;;;8.73;1.50;;;15.50;99.90;;;;;;5066198;28;20045;-77
2023/08/13 01:53:04;;;;;;;8.90;1.75;;;15.50;99.90;;;;;;5065411;28;20465;-66
2023/08/13 01:55:30;;;;;;;8.57;1.52;;;15.50;99.90;;;;;;5065758;28;20028;-65
2023/08/13 01:57:55;;;;;;;11.85;2.00;;;15.40;99.90;;;;;;5066812;28;20512;-66
2023/08/13 02:00:21;;;;;;;8.75;1.90;;;15.40;99.90;;;;;;5065355;28;20036;-66
2023/08/13 02:02:47;;;;;;;10.60;2.03;;;15.40;99.90;;;;;;5066937;28;20106;-66
2023/08/13 02:05:13;;;;;;;8.77;1.58;;;15.40;99.90;;;;;;5066075;28;20056;-65
2023/08/13 02:07:38;;;;;;;8.95;2.00;;;15.40;99.90;;;;;;5065882;28;20060;-66
2023/08/13 02:10:04;;;;;;;8.40;2.05;;;15.40;99.90;;;;;;5071296;28;20048;-66
2023/08/13 02:12:31;;;;;;;7.43;1.65;;;15.40;99.90;;;;;;5062269;28;20036;-66
2023/08/13 02:14:56;;;;;;;8.15;1.70;;;15.30;99.90;;;;;;5066939;28;20489;-66
2023/08/13 02:17:22;;;;;;;7.97;1.85;;;15.30;99.90;;;;;;5064947;28;20063;-66
2023/08/13 02:19:48;;;;;;;14.40;2.05;;;15.30;99.90;;;;;;5081990;28;20045;-66
2023/08/13 02:22:14;;;;;;;7.65;1.80;;;15.30;99.90;;;;;;5078391;28;20491;-66
2023/08/13 02:24:39;;;;;;;6.45;1.63;;;15.20;99.90;;;;;;5067945;28;20082;-65
2023/08/13 02:27:05;;;;;;;6.60;1.88;;;15.20;99.90;;;;;;5066310;28;20098;-67
2023/08/13 02:29:31;;;;;;;13.52;2.33;;;15.30;99.90;;;;;;5065046;28;20044;-66
2023/08/13 02:31:56;;;;;;;12.07;2.47;;;15.30;99.90;;;;;;5066482;28;20109;-66
2023/08/13 02:34:23;;;;;;;8.63;1.90;;;15.30;99.90;;;;;;5059625;28;20048;-66
2023/08/13 02:36:49;;;;;;;13.82;1.70;;;15.30;99.90;;;;;;5066984;28;20209;-65
2023/08/13 02:39:15;;;;;;;12.10;1.98;;;15.30;99.90;;;;;;5067453;28;20480;-66
2023/08/13 02:41:40;;;;;;;9.63;2.42;;;15.30;99.90;;;;;;5085838;28;20051;-66
2023/08/13 02:44:06;;;;;;;8.90;2.00;;;15.30;99.90;;;;;;5068840;28;20056;-65
2023/08/13 02:46:32;;;;;;;9.43;1.95;;;15.20;99.90;;;;;;5069830;28;20048;-66
2023/08/13 02:48:58;;;;;;;6.93;1.85;;;15.20;99.90;;;;;;5070028;28;20036;-66
2023/08/13 02:51:24;;;;;;;12.60;2.75;;;15.20;99.90;;;;;;5068910;28;20095;-66
2023/08/13 02:53:50;;;;;;;13.00;2.22;;;15.20;99.90;;;;;;5069590;28;20568;-66
2023/08/13 02:56:16;;;;;;;8.25;2.00;;;15.20;99.90;;;;;;5069402;28;20082;-66
2023/08/13 02:58:42;;;;;;;6.47;1.95;;;15.20;99.90;;;;;;5069993;28;20110;-65
2023/08/13 03:01:10;;;;;;;6.30;1.80;;;15.20;99.90;;;;;;5068571;28;20052;-66
2023/08/13 03:03:35;;;;;;;7.20;1.67;;;15.10;99.90;;;;;;5068026;28;20572;-66
2023/08/13 03:06:01;;;;;;;8.73;2.53;;;15.10;99.90;;;;;;5068594;28;20060;-70
2023/08/13 03:08:27;;;;;;;6.05;1.63;;;15.10;99.90;;;;;;5068663;28;20056;-66
2023/08/13 03:10:52;;;;;;;10.82;2.40;;;15.10;99.90;;;;;;5055448;28;20047;-68
2023/08/13 03:13:18;;;;;;;11.75;2.88;;;15.20;99.90;;;;;;5068572;28;20378;-66
2023/08/13 03:15:44;;;;;;;10.13;1.95;;;15.10;99.90;;;;;;5069598;28;20178;-66
2023/08/13 03:18:10;;;;;;;9.82;2.20;;;15.10;99.90;;;;;;5067471;28;20499;-66
2023/08/13 03:20:36;;;;;;;13.00;2.17;;;15.10;99.90;;;;;;5069986;28;20040;-66
2023/08/13 03:23:03;;;;;;;12.77;2.40;;;15.20;99.90;;;;;;5068422;28;20094;-90
2023/08/13 03:25:29;;;;;;;8.60;1.80;;;15.10;99.90;;;;;;5068774;28;20445;-65
2023/08/13 03:27:54;;;;;;;7.60;2.13;;;15.10;99.90;;;;;;5069003;28;20048;-66
2023/08/13 03:30:20;;;;;;;10.23;2.05;;;15.10;99.90;;;;;;5065993;28;20033;-66
2023/08/13 03:32:46;;;;;;;6.45;1.73;;;15.10;99.90;;;;;;5069603;28;20102;-66
2023/08/13 03:35:11;;;;;;;5.47;2.00;;;15.10;99.90;;;;;;5067515;28;20329;-66
2023/08/13 03:37:37;;;;;;;8.55;1.73;;;15.10;99.90;;;;;;5069467;28;20529;-66
2023/08/13 03:40:05;;;;;;;9.00;2.25;;;15.10;99.90;;;;;;5067305;28;20048;-66
2023/08/13 03:42:31;;;;;;;12.30;2.47;;;15.10;99.90;;;;;;5067678;28;20056;-66
2023/08/13 03:44:58;;;;;;;8.00;2.33;;;15.00;99.90;;;;;;5068044;28;20040;-66
2023/08/13 03:47:24;;;;;;;10.95;1.98;;;15.00;99.90;;;;;;5072414;28;20367;-66
2023/08/13 03:49:49;;;;;;;13.18;2.05;;;15.00;99.90;;;;;;5076364;28;20052;-66
2023/08/13 03:52:15;;;;;;;9.40;2.00;;;15.10;99.90;;;;;;5078885;28;20044;-66
2023/08/13 03:54:41;;;;;;;11.60;2.50;;;15.00;99.90;;;;;;5075230;28;20045;-66
2023/08/13 03:57:07;;;;;;;9.65;2.15;;;15.00;99.90;;;;;;5069315;28;20040;-66
2023/08/13 03:59:32;;;;;;;8.70;1.83;;;15.00;99.90;;;;;;5079190;28;20044;-66
2023/08/13 04:01:58;;;;;;;10.63;1.80;;;15.10;99.90;;;;;;5073744;28;20109;-66
2023/08/13 04:04:25;;;;;;;14.68;3.22;;;15.10;99.90;;;;;;5080658;28;20127;-66
2023/08/13 04:06:51;;;;;;;11.15;2.30;;;15.10;99.90;;;;;;5073421;28;20120;-66
2023/08/13 04:09:17;;;;;;;12.18;1.80;;;15.10;99.90;;;;;;5070373;28;20041;-66
2023/08/13 04:11:43;;;;;;;13.02;2.10;;;15.10;99.90;;;;;;5057440;28;20116;-66
2023/08/13 04:14:08;;;;;;;14.45;2.47;;;15.20;99.90;;;;;;5066438;28;20048;-66
2023/08/13 04:16:34;;;;;;;11.50;2.35;;;15.10;99.90;;;;;;5068654;28;20048;-66
2023/08/13 04:19:00;;;;;;;6.63;1.73;;;15.20;99.90;;;;;;5067035;28;20040;-66
2023/08/13 04:21:26;;;;;;;8.52;2.15;;;15.10;99.90;;;;;;5067784;28;20319;-66
2023/08/13 04:23:55;;;;;;;9.23;2.35;;;15.20;99.90;;;;;;5067914;28;20116;-66
2023/08/13 04:26:22;;;;;;;7.18;1.35;;;15.10;99.90;;;;;;5066496;28;20510;-66
2023/08/13 04:28:47;;;;;;;10.32;2.42;;;15.10;99.90;;;;;;5068139;28;20495;-66
2023/08/13 04:31:13;;;;;;;9.25;2.20;;;15.10;99.90;;;;;;5066430;28;20064;-67
2023/08/13 04:33:39;;;;;;;9.07;1.92;;;15.10;99.90;;;;;;5067865;28;20113;-66
2023/08/13 04:36:05;;;;;;;5.93;1.80;;;15.00;99.90;;;;;;5065560;28;20090;-66
2023/08/13 04:38:30;;;;;;;15.93;1.98;;;15.00;99.90;;;;;;5083835;28;20049;-87
2023/08/13 04:40:56;;;;;;;10.02;2.20;;;14.90;99.90;;;;;;5082936;28;20040;-66
2023/08/13 04:43:22;;;;;;;8.05;2.67;;;14.90;99.90;;;;;;5067100;28;20036;-66
2023/08/13 04:45:48;;;;;;;16.45;2.05;;;14.90;99.90;;;;;;5069924;28;20054;-78
2023/08/13 04:48:37;;;;;;;7.22;2.05;;;15.00;99.90;;;;;;5064953;28;20052;-66
2023/08/13 04:51:03;;;;;;;;;;;15.00;99.90;;;;;;5069151;28;20045;-67
2023/08/13 04:53:29;;;;;;;6.93;2.15;;;15.00;99.90;;;;;;5066247;28;19993;-66
2023/08/13 04:55:54;;;;;;;10.77;2.55;;;15.00;99.90;;;;;;5067582;28;20049;-67
2023/08/13 04:58:20;;;;;;;8.48;2.47;;;15.10;99.90;;;;;;5066667;28;20044;-66
2023/08/13 05:00:46;;;;;;;13.68;2.40;;;15.10;99.90;;;;;;5066660;28;20028;-66
2023/08/13 05:03:12;;;;;;;13.27;2.38;;;15.20;99.90;;;;;;5067361;28;20455;-66
2023/08/13 05:05:37;;;;;;;9.00;1.85;;;15.20;99.90;;;;;;5065096;28;20129;-66
2023/08/13 05:08:03;;;;;;;12.15;2.78;;;15.30;99.90;;;;;;5067956;28;20048;-66
2023/08/13 05:10:29;;;;;;;16.05;2.38;;;15.30;99.90;;;;;;5050176;28;20059;-66
2023/08/13 05:12:55;;;;;;;9.93;2.08;;;15.40;99.90;;;;;;5053882;28;20040;-66
2023/08/13 05:15:21;;;;;;;11.25;2.47;;;15.50;99.90;;;;;;5065732;28;20402;-66
2023/08/13 05:17:46;;;;;;;10.02;2.53;;;15.60;99.90;;;;;;5067028;28;20178;-66
2023/08/13 05:20:12;;;;;;;18.90;2.72;;;15.60;99.90;;;;;;5065760;28;20155;-66
2023/08/13 05:22:38;;;;;;;10.52;2.88;;;15.70;99.90;;;;;;5066219;28;20055;-66
2023/08/13 05:25:04;;;;;;;8.68;1.67;;;15.80;99.90;;;;;;5067398;28;20119;-67
2023/08/13 05:27:29;;;;;;;11.02;2.35;;;15.80;99.90;;;;;;5064087;28;20077;-66
2023/08/13 05:29:55;;;;;;;10.18;2.47;;;15.90;99.90;;;;;;5067441;28;20052;-66
2023/08/13 05:32:22;;;;;;;11.88;2.10;;;15.90;99.90;;;;;;5065585;28;20036;-66
2023/08/13 05:34:48;;;;;;;6.78;1.98;;;15.90;99.90;;;;;;5066938;28;20067;-66
2023/08/13 05:37:14;;;;;;;14.70;2.10;;;16.00;99.90;;;;;;5066124;28;20040;-66
2023/08/13 05:39:40;;;;;;;11.30;2.42;;;16.10;99.90;;;;;;5080437;28;20067;-66
2023/08/13 05:42:06;;;;;;;9.90;2.10;;;16.20;99.90;;;;;;5067485;28;20084;-66
2023/08/13 05:44:31;;;;;;;10.68;2.60;;;16.30;99.90;;;;;;5065152;28;20460;-67
2023/08/13 05:46:57;;;;;;;9.98;2.25;;;16.30;99.90;;;;;;5067578;28;20040;-66
2023/08/13 05:49:23;;;;;;;10.43;2.60;;;16.40;99.90;;;;;;5064917;28;20542;-67
2023/08/13 05:51:49;;;;;;;9.88;2.38;;;16.40;99.90;;;;;;5067431;28;20628;-67
2023/08/13 05:54:15;;;;;;;7.63;2.13;;;16.50;99.90;;;;;;5065915;28;20089;-66
2023/08/13 05:56:41;;;;;;;13.18;2.33;;;16.50;99.90;;;;;;5066583;28;20252;-68
2023/08/13 05:59:06;;;;;;;10.38;2.20;;;16.50;99.90;;;;;;5065495;28;20041;-66
2023/08/13 06:01:33;;;;;;;7.43;1.90;;;16.60;99.90;;;;;;5047691;28;20037;-68
2023/08/13 06:03:59;;;;;;;10.02;2.42;;;16.60;99.90;;;;;;5067670;28;20417;-67
2023/08/13 06:06:25;;;;;;;12.27;2.63;;;16.60;99.90;;;;;;5064278;28;20079;-68
2023/08/13 06:08:51;;;;;;;7.00;1.95;;;16.60;99.90;;;;;;5064796;28;20052;-68
2023/08/13 06:11:17;;;;;;;7.28;1.95;;;16.70;99.90;;;;;;5034914;28;20048;-66
2023/08/13 06:13:43;;;;;;;12.18;2.10;;;16.70;99.90;;;;;;5070778;28;20097;-66
2023/08/13 06:16:08;;;;;;;6.80;1.85;;;16.70;99.90;;;;;;5069290;28;20040;-67
2023/08/13 06:18:34;;;;;;;9.05;2.40;;;16.80;99.90;;;;;;5068752;28;20041;-67
2023/08/13 06:21:00;;;;;;;8.10;1.92;;;16.80;99.90;;;;;;5069962;28;20124;-67
2023/08/13 06:23:26;;;;;;;10.70;2.08;;;16.80;99.90;;;;;;5068709;28;20056;-66
2023/08/13 06:25:51;;;;;;;9.25;2.17;;;16.80;99.90;;;;;;5070696;28;20052;-66
2023/08/13 06:28:17;;;;;;;11.40;2.75;;;16.80;99.90;;;;;;5084170;28;20090;-66
2023/08/13 06:30:44;;;;;;;8.32;2.28;;;16.70;99.90;;;;;;5069866;28;20044;-67
2023/08/13 06:33:10;;;;;;;12.15;1.88;;;16.80;99.90;;;;;;5066531;28;20048;-66
2023/08/13 06:35:36;;;;;;;15.90;3.42;;;16.80;99.90;;;;;;5069368;28;20410;-66
2023/08/13 06:38:03;;;;;;;10.73;2.30;;;16.80;99.90;;;;;;5070186;28;20431;-67
2023/08/13 06:40:28;;;;;;;12.65;2.47;;;16.80;99.90;;;;;;5068622;28;20087;-66
2023/08/13 06:42:54;;;;;;;11.93;2.25;;;16.70;99.90;;;;;;5068974;28;20064;-66
2023/08/13 06:45:23;;;;;;;16.95;2.90;;;16.70;99.90;;;;;;5067217;28;20489;-67
2023/08/13 06:47:49;;;;;;;8.53;2.00;;;16.60;99.90;;;;;;5070527;28;20053;-67
2023/08/13 06:50:14;;;;;;;10.02;2.30;;;16.70;99.90;;;;;;5066916;28;20045;-66
2023/08/13 06:52:40;;;;;;;9.75;3.00;;;16.80;99.90;;;;;;5069536;28;20386;-66
2023/08/13 06:55:06;;;;;;;10.82;2.30;;;16.90;99.90;;;;;;5067362;28;20033;-67
2023/08/13 06:57:32;;;;;;;13.00;2.45;;;17.00;99.90;;;;;;5067361;28;20137;-67
2023/08/13 06:59:57;;;;;;;13.77;2.63;;;17.10;99.90;;;;;;5070221;28;20044;-67
2023/08/13 07:02:23;;;;;;;10.40;2.30;;;17.20;99.90;;;;;;5059196;28;20049;-67
2023/08/13 07:04:49;;;;;;;14.20;2.75;;;17.40;99.90;;;;;;5064536;28;20052;-67
2023/08/13 07:07:15;;;;;;;12.85;3.17;;;17.60;99.90;;;;;;5065797;28;20196;-67
2023/08/13 07:09:41;;;;;;;18.05;2.92;;;17.80;99.90;;;;;;5052275;28;20124;-67
2023/08/13 07:12:06;;;;;;;11.77;2.20;;;18.10;99.90;;;;;;5073274;28;20265;-66
2023/08/13 07:14:32;;;;;;;9.57;2.60;;;18.30;99.90;;;;;;5047986;28;20045;-66
2023/08/13 07:16:59;;;;;;;7.80;2.45;;;18.50;99.90;;;;;;5074684;28;20051;-67
2023/08/13 07:19:24;;;;;;;10.90;2.10;;;18.50;99.90;;;;;;5073914;28;20043;-68
2023/08/13 07:21:50;;;;;;;8.98;2.50;;;18.40;99.90;;;;;;5072367;28;20048;-66
2023/08/13 07:24:16;;;;;;;9.95;2.83;;;18.50;99.90;;;;;;5077312;28;20772;-67
2023/08/13 07:26:41;;;;;;;14.32;2.88;;;18.70;99.90;;;;;;5076237;28;20419;-67
2023/08/13 07:29:07;;;;;;;16.40;2.65;;;18.80;99.90;;;;;;5071869;28;20064;-67
2023/08/13 07:31:36;;;;;;;14.52;2.95;;;19.00;99.90;;;;;;5068237;28;20119;-66
2023/08/13 07:34:02;;;;;;;8.60;2.30;;;19.30;99.90;;;;;;5065817;28;20516;-66
2023/08/13 07:36:28;;;;;;;10.68;2.35;;;19.60;99.90;;;;;;5075495;28;20036;-66
2023/08/13 07:38:54;;;;;;;14.60;3.78;;;19.90;99.90;;;;;;5088094;28;20484;-67
2023/08/13 07:41:20;;;;;;;6.30;1.75;;;20.20;99.90;;;;;;5078658;28;20043;-67
2023/08/13 07:43:45;;;;;;;12.00;2.50;;;20.50;99.90;;;;;;5078445;28;20131;-66
2023/08/13 07:46:11;;;;;;;13.68;3.30;;;20.80;99.90;;;;;;5069296;28;20047;-66
2023/08/13 07:48:37;;;;;;;4.47;1.75;;;20.90;99.90;;;;;;5077406;28;20075;-67
2023/08/13 07:51:02;;;;;;;12.50;2.45;;;21.10;99.90;;;;;;5064730;28;20052;-67
2023/08/13 07:53:29;;;;;;;10.98;2.13;;;21.30;99.90;;;;;;5064509;28;20110;-67
2023/08/13 07:55:55;;;;;;;8.20;2.13;;;21.50;99.90;;;;;;5049534;28;20129;-67
2023/08/13 07:58:20;;;;;;;11.15;2.50;;;21.70;99.90;;;;;;5053365;28;20131;-67
2023/08/13 08:00:46;;;;;;;7.00;2.00;;;21.90;99.90;;;;;;5050666;28;20041;-67
2023/08/13 08:03:13;;;;;;;6.90;1.83;;;22.10;99.90;;;;;;5058451;28;20489;-67
2023/08/13 08:05:39;;;;;;;11.82;2.33;;;22.20;99.90;;;;;;5063642;28;20041;-67
2023/08/13 08:08:05;;;;;;;10.77;1.95;;;22.30;99.90;;;;;;5050714;28;20064;-67
2023/08/13 08:10:31;;;;;;;10.50;1.88;;;22.40;99.20;;;;;;5065022;28;20098;-66
2023/08/13 08:12:57;;;;;;;9.23;1.77;;;22.50;99.90;;;;;;5066844;28;20111;-66
2023/08/13 08:15:23;;;;;;;9.80;2.22;;;22.60;99.00;;;;;;5059421;28;20547;-66
2023/08/13 08:17:48;;;;;;;12.05;2.20;;;22.50;95.50;;;;;;5057562;28;20041;-67
2023/08/13 08:20:14;;;;;;;9.63;2.55;;;22.50;98.40;;;;;;5063426;28;20395;-67
2023/08/13 08:22:40;;;;;;;6.22;1.75;;;22.40;97.50;;;;;;5067098;28;20048;-66
2023/08/13 08:25:10;;;;;;;8.55;2.00;;;22.30;94.90;;;;;;5066370;28;20045;-66
2023/08/13 08:27:37;;;;;;;6.68;1.58;;;22.20;96.10;;;;;;5078237;28;20048;-67
2023/08/13 08:30:03;;;;;;;13.63;2.10;;;22.20;98.50;;;;;;5084704;28;20398;-67
2023/08/13 08:32:30;;;;;;;7.50;1.77;;;22.30;95.60;;;;;;5082940;28;20047;-68
2023/08/13 08:34:56;;;;;;;8.90;1.98;;;22.50;93.80;;;;;;5083700;28;20049;-67
2023/08/13 08:37:22;;;;;;;10.05;2.25;;;22.60;94.50;;;;;;5082012;28;20055;-67
2023/08/13 08:39:47;;;;;;;6.47;1.75;;;22.80;94.10;;;;;;5063766;28;20044;-67
2023/08/13 08:42:13;;;;;;;6.57;1.65;;;22.90;93.30;;;;;;5071844;28;20051;-68
2023/08/13 08:44:45;;;;;;;6.35;1.55;;;23.00;90.20;;;;;;5074062;28;20101;-68
2023/08/13 08:47:11;;;;;;;6.40;1.50;;;22.90;74.60;;;;;;5079856;28;20047;-67
2023/08/13 08:49:37;;;;;;;5.47;1.10;;;22.90;72.50;;;;;;5067331;28;20555;-67
2023/08/13 08:52:05;;;;;;;5.45;1.50;;;23.00;71.90;;;;;;5079809;28;20044;-67
2023/08/13 08:54:32;;;;;;;8.45;1.58;;;22.90;65.30;;;;;;5076212;28;20039;-68
2023/08/13 08:56:58;;;;;;;6.57;1.83;;;22.70;55.20;;;;;;5078347;28;20044;-66
2023/08/13 08:59:24;;;;;;;4.70;1.35;;;22.50;59.50;;;;;;5066996;28;20051;-67
2023/08/13 09:01:49;;;;;;;9.50;1.58;;;22.40;66.30;;;;;;5074589;28;20041;-66
2023/08/13 09:04:15;;;;;;;6.38;1.38;;;22.40;63.20;;;;;;5075917;28;20406;-66
2023/08/13 09:07:02;;;;;;;5.97;1.88;;;22.20;67.80;;;;;;5069354;28;20041;-67
2023/08/13 09:09:29;;;;;;;3.70;1.30;;;22.00;64.60;;;;;;5064860;28;20077;-78
2023/08/13 09:11:57;;;;;;;5.13;1.27;;;21.80;61.70;;;;;;5064349;28;20087;-66
2023/08/13 09:14:23;;;;;;;4.50;1.50;;;21.70;64.20;;;;;;5066962;28;20386;-66
2023/08/13 09:16:51;;;;;;;6.80;1.42;;;21.50;67.30;;;;;;5064185;28;20502;-66
2023/08/13 09:19:18;;;;;;;7.53;1.42;;;21.50;68.20;;;;;;5067524;28;20044;-67
2023/08/13 09:21:49;;;;;;;6.15;1.20;;;21.50;72.80;;;;;;5065112;28;20055;-67
2023/08/13 09:24:15;;;;;;;6.68;1.50;;;21.70;73.00;;;;;;5066936;28;20037;-66
2023/08/13 09:26:41;;;;;;;9.20;1.60;;;21.90;73.40;;;;;;5065769;28;20135;-66
2023/08/13 09:29:07;;;;;;;7.38;1.50;;;22.00;63.10;;;;;;5063793;28;20041;-66
2023/08/13 09:31:34;;;;;;;7.13;1.75;;;22.20;68.90;;;;;;5067191;28;20090;-67
2023/08/13 09:34:00;;;;;;;3.97;1.73;;;22.50;68.80;;;;;;5062828;28;20063;-66
2023/08/13 09:36:27;;;;;;;7.28;1.45;;;22.60;51.80;;;;;;5065665;28;20047;-67
2023/08/13 09:38:53;;;;;;;9.27;1.52;;;22.60;46.10;;;;;;5065768;28;20037;-66
2023/08/13 09:41:19;;;;;;;4.78;1.15;;;22.50;36.80;;;;;;5068049;28;20047;-66
2023/08/13 09:43:49;;;;;;;8.73;2.03;;;22.50;41.00;;;;;;5065749;28;20041;-66
2023/08/13 09:46:21;;;;;;;6.20;1.50;;;22.30;41.20;;;;;;5075505;28;20037;-66
2023/08/13 09:48:49;;;;;;;5.53;1.70;;;22.30;56.50;;;;;;5073458;28;20040;-67
2023/08/13 09:51:18;;;;;;;4.03;1.73;;;22.10;44.70;;;;;;5070437;28;20491;-66
2023/08/13 09:53:52;;;;;;;7.70;1.60;;;22.20;47.30;;;;;;5071648;28;20115;-66
2023/08/13 09:56:21;;;;;;;7.68;1.25;;;22.30;56.50;;;;;;5071783;28;20124;-66
2023/08/13 09:58:47;;;;;;;4.22;1.17;;;22.50;53.50;;;;;;5071119;28;20146;-66
2023/08/13 10:01:13;;;;;;;3.80;1.17;;;22.70;50.70;;;;;;5066832;28;20045;-66
2023/08/13 10:03:40;;;;;;;5.78;1.08;;;22.90;35.20;;;;;;5068919;28;20044;-66
2023/08/13 10:06:06;;;;;;;4.68;1.85;;;23.00;31.00;;;;;;5077785;28;20052;-67
2023/08/13 10:08:32;;;;;;;2.55;0.90;;;23.10;22.60;;;;;;5060233;28;20048;-67
2023/08/13 10:10:59;;;;;;;4.70;1.10;;;23.20;12.00;;;;;;5043151;28;20220;-66
2023/08/13 10:13:25;;;;;;;4.95;1.13;;;23.30;22.60;;;;;;5069672;28;20631;-67
2023/08/13 10:15:51;;;;;;;3.85;1.30;;;23.50;21.00;;;;;;5061938;28;20120;-66
2023/08/13 10:18:17;;;;;;;3.67;1.20;;;23.50;14.20;;;;;;5078157;28;20044;-66
2023/08/13 10:20:46;;;;;;;4.25;1.23;;;23.60;6.10;;;;;;5077075;28;20117;-69
2023/08/13 10:23:12;;;;;;;2.10;0.93;;;23.60;2.60;;;;;;5077919;28;20040;-67
2023/08/13 10:25:39;;;;;;;2.83;1.00;;;23.70;1.00;;;;;;5073173;28;20037;-67
2023/08/13 10:28:22;;;;;;;3.80;0.90;;;23.70;2.40;;;;;;5076796;28;20076;-66
2023/08/13 10:30:48;;;;;;;3.08;1.00;;;23.80;1.00;;;;;;5069961;28;20889;-67
2023/08/13 10:33:14;;;;;;;4.80;1.30;;;23.80;1.00;;;;;;5074586;28;20150;-66
2023/08/13 10:35:41;;;;;;;2.75;0.70;;;23.80;1.00;;;;;;5070808;28;20105;-67
2023/08/13 10:38:08;;;;;;;4.13;0.90;;;23.70;1.00;;;;;;5062512;28;20554;-67
2023/08/13 10:40:35;;;;;;;5.57;1.20;;;23.60;1.00;;;;;;5065953;28;20037;-66
2023/08/13 10:43:04;;;;;;;3.25;0.80;;;23.60;1.00;;;;;;5068156;28;20086;-65
2023/08/13 10:45:37;;;;;;;4.35;1.08;;;23.50;1.00;;;;;;5067268;28;20037;-66
2023/08/13 10:48:05;;;;;;;3.38;1.08;;;23.50;1.00;;;;;;5059249;28;20099;-68
2023/08/13 10:50:37;;;;;;;3.17;1.00;;;23.30;3.00;;;;;;5069809;28;20048;-67
2023/08/13 10:53:04;;;;;;;12.20;2.00;;;23.20;6.50;;;;;;5068010;28;20052;-67
2023/08/13 10:55:32;;;;;;;2.95;0.98;;;23.20;5.60;;;;;;5064265;28;20048;-67
2023/08/13 10:57:59;;;;;;;3.17;0.90;;;23.10;1.00;;;;;;5070586;28;20190;-67
2023/08/13 11:00:26;;;;;;;2.30;0.70;;;23.10;1.00;;;;;;5070959;28;20036;-67
2023/08/13 11:03:15;;;;;;;1.50;0.70;;;23.20;1.40;;;;;;5082276;28;20119;-67
2023/08/13 11:05:43;;;;;;;3.10;0.70;;;23.40;9.00;;;;;;5082025;28;20083;-66
2023/08/13 11:08:14;;;;;;;2.42;0.60;;;23.50;5.10;;;;;;5079446;28;20048;-67
2023/08/13 11:10:40;;;;;;;3.00;1.10;;;23.40;1.00;;;;;;5060863;28;20033;-67
2023/08/13 11:13:05;;;;;;;3.95;1.08;;;23.30;1.00;;;;;;5075366;28;20279;-67
2023/08/13 11:15:31;;;;;;;2.33;0.90;;;23.20;1.00;;;;;;5082788;28;20048;-66
2023/08/13 11:17:57;;;;;;;1.02;0.50;;;23.10;1.00;;;;;;5081967;28;20077;-66
2023/08/13 11:20:23;;;;;;;3.50;0.70;;;23.00;1.00;;;;;;5084711;28;20039;-67
2023/08/13 11:22:49;;;;;;;3.65;1.23;;;22.90;1.00;;;;;;5080472;28;20043;-67
2023/08/13 11:25:15;;;;;;;5.03;1.38;;;22.90;1.00;;;;;;5084338;28;20047;-68
2023/08/13 11:27:40;;;;;;;3.08;0.93;;;22.90;1.60;;;;;;5069311;28;20162;-67
2023/08/13 11:30:09;;;;;;;2.47;0.95;;;23.10;1.00;;;;;;5084185;28;20478;-67
2023/08/13 11:32:38;;;;;;;2.95;0.88;;;23.20;3.80;;;;;;5073959;28;20119;-66
2023/08/13 11:35:06;;;;;;;4.97;0.88;;;23.30;1.00;;;;;;5060335;28;20054;-67
2023/08/13 11:37:33;;;;;;;3.35;1.08;;;23.50;1.00;;;;;;5073480;28;20506;-67
2023/08/13 11:39:59;;;;;;;3.90;0.82;;;23.50;8.60;;;;;;5082299;28;20067;-66
2023/08/13 11:42:24;;;;;;;5.28;1.15;;;23.70;1.00;;;;;;5085371;28;20091;-66
2023/08/13 11:44:50;;;;;;;7.38;0.93;;;23.60;1.00;;;;;;5082341;28;20047;-66
2023/08/13 11:47:27;;;;;;;2.92;0.98;;;23.50;1.00;;;;;;5076073;28;20040;-67
2023/08/13 11:49:58;;;;;;;2.42;0.98;;;23.40;1.00;;;;;;5063515;28;20049;-67
2023/08/13 11:52:25;;;;;;;1.75;0.90;;;23.20;1.00;;;;;;5059970;28;20773;-66
2023/08/13 11:54:51;;;;;;;4.10;1.00;;;23.10;1.00;;;;;;5061747;28;20103;-67
2023/08/13 11:57:18;;;;;;;2.00;0.82;;;22.90;1.00;;;;;;5065218;28;20474;-67
2023/08/13 11:59:48;;;;;;;3.65;1.15;;;22.80;1.00;;;;;;5065723;28;20087;-67
2023/08/13 12:02:14;;;;;;;;;;;22.60;1.40;;;;;;5065503;28;20126;-67
2023/08/13 12:04:40;;;;;;;3.72;0.77;;;22.50;5.40;;;;;;5058238;28;19916;-67
2023/08/13 12:07:09;;;;;;;4.90;0.90;;;22.40;9.70;;;;;;5066654;28;20074;-67
2023/08/13 12:09:35;;;;;;;;;;;22.40;14.10;;;;;;5063121;28;20049;-67
2023/08/13 12:12:00;;;;;;;1.83;0.90;;;22.50;17.70;;;;;;5061078;28;19924;-67
2023/08/13 12:14:26;;;;;;;2.25;0.80;;;22.60;19.10;;;;;;5064843;28;20097;-67
2023/08/13 12:16:52;;;;;;;3.38;0.47;;;22.70;11.60;;;;;;5066049;28;20388;-68
2023/08/13 12:19:17;;;;;;;1.95;0.52;;;22.80;3.40;;;;;;5065162;28;20076;-67
2023/08/13 12:21:43;;;;;;;1.27;0.55;;;22.70;3.40;;;;;;5072357;28;20370;-67
2023/08/13 12:24:09;;;;;;;2.65;0.57;;;22.60;1.40;;;;;;5062585;28;20044;-67
2023/08/13 12:26:35;;;;;;;1.77;0.40;;;22.60;1.00;;;;;;5072363;28;20077;-67
2023/08/13 12:29:02;;;;;;;3.22;0.77;;;22.50;5.00;;;;;;5068167;28;20408;-67
2023/08/13 12:31:29;;;;;;;3.70;0.70;;;22.40;1.00;;;;;;5065713;28;20073;-68
2023/08/13 12:33:56;;;;;;;5.47;0.73;;;22.30;1.20;;;;;;5064618;28;20423;-68
2023/08/13 12:36:21;;;;;;;2.50;1.00;;;22.30;10.60;;;;;;5065768;28;20055;-67
2023/08/13 12:38:48;;;;;;;2.20;0.60;;;22.30;9.20;;;;;;5071567;28;20043;-68
2023/08/13 12:41:13;;;;;;;2.58;0.88;;;22.40;11.40;;;;;;5048682;28;20049;-67
2023/08/13 12:43:39;;;;;;;2.30;0.55;;;22.50;10.10;;;;;;5072248;28;20141;-67